CheckWX is a tool to help pilots better visualize weather data.  It is not intended as a substitute for an official pre-flight weather briefing.

20:51:40 UTC

KTCC TAF
Tucumcari Municipal Airport
Tucumcari, New Mexico, USA
KTCC 161738Z 1618/1718 05011KT P6SM SKC FM162300 07012KT P6SM VCTS BKN080CB FM170200 08009KT P6SM VCSH BKN080 FM170600 VRB05KT P6SM BKN100

Jun-16@
18:00 UTC

Jun-16 @ 18:00 UTC

Jun-16@
23:00 UTC

Jun-16 @ 23:00 UTC

KTCC 161738Z 1618/1718 05011KT P6SM SKC
Wind
  • 050° at 11 KTS
Cloud Levels
  • Clear skies

Jun-16@
23:00 UTC

Jun-16 @ 23:00 UTC

Jun-17@
02:00 UTC

Jun-17 @ 02:00 UTC

FM162300 07012KT P6SM VCTS BKN080CB

From

From Standard forecast or significant change

Wind
  • 070° at 12 KTS
Conditions
Area Thunderstorm
Cloud Levels
  • Broken at 8,000' AGL

Jun-17@
02:00 UTC

Jun-17 @ 02:00 UTC

Jun-17@
06:00 UTC

Jun-17 @ 06:00 UTC

FM170200 08009KT P6SM VCSH BKN080

From

From Standard forecast or significant change

Wind
  • 080° at 9 KTS
Cloud Levels
  • Broken at 8,000' AGL

Jun-17@
06:00 UTC

Jun-17 @ 06:00 UTC

Jun-17@
18:00 UTC

Jun-17 @ 18:00 UTC

FM170600 VRB05KT P6SM BKN100

From

From Standard forecast or significant change

Wind
  • Variable at 5 KTS
Cloud Levels
  • Broken at 10,000' AGL